Latest Weather Observations for Mandora

IDW60801

Issued at 11:03 pm WST Monday 29 November 2021 (issued every 10 minutes, with the page automatically refreshed every 10 minutes)

About weather observations | Map of weather stations | Latest weather observations for WA | Other Formats
Station Details ID: 004019 Name: MANDORA Lat: -19.74 Lon: 120.84 Height: 7.5 m
Data from the previous 72 hours. | See also: Recent months at Mandora
Date/Time
WST
Temp
°C
App
Temp
°C
Dew
Point
°C
Rel
Hum
%
Delta-T
°C
Wind Press
QNH
hPa
Press
MSL
hPa
Rain since
9am
mm
Dir  Spd
km/h
Gust
km/h
Spd
kts
Gust
kts
29/11:00pm 24.9 28.6 24.6 98 0.2 WSW 13 17 7 9 1008.0 1007.9 0.0
29/10:30pm 25.3 29.5 24.8 97 0.3 WSW 11 15 6 8 1008.2 1008.1 0.0
29/10:00pm 25.6 29.3 24.6 94 0.7 WSW 13 17 7 9 1008.4 1008.3 0.0
29/09:30pm 25.8 29.5 24.6 93 0.8 WSW 13 17 7 9 1008.4 1008.3 0.0
29/09:00pm 26.1 30.6 24.0 88 1.4 W 7 11 4 6 1008.3 1008.2 0.0
29/08:30pm 26.8 31.6 24.1 85 1.9 WSW 6 9 3 5 1008.0 1007.9 0.0
29/08:00pm 27.4 30.7 24.5 84 2.0 WSW 15 20 8 11 1007.4 1007.3 0.0
29/07:30pm 27.7 30.6 24.5 83 2.2 WSW 17 22 9 12 1007.0 1006.9 0.0
29/07:00pm 28.2 31.2 24.6 81 2.5 W 17 22 9 12 1006.7 1006.6 0.0
29/06:30pm 28.8 31.3 24.4 77 3.1 W 19 28 10 15 1006.3 1006.2 0.0
29/06:00pm 29.7 32.0 23.4 69 4.3 WNW 17 28 9 15 1005.8 1005.7 0.0
29/05:30pm 30.6 32.1 23.0 64 5.2 WNW 20 32 11 17 1005.4 1005.3 0.0
29/05:00pm 31.7 31.6 21.5 54 6.9 WNW 24 33 13 18 1005.2 1005.1 0.0
29/04:30pm 32.9 33.4 22.0 52 7.4 WNW 22 33 12 18 1005.0 1004.9 0.0
29/04:00pm 33.8 34.5 21.6 49 8.3 WNW 20 33 11 18 1004.9 1004.8 0.0
29/03:30pm 34.5 34.8 21.5 46 8.8 WNW 22 35 12 19 1004.9 1004.8 0.0
29/03:00pm 34.7 34.7 21.0 44 9.3 WNW 22 33 12 18 1005.3 1005.2 0.0
29/02:30pm 35.0 34.2 20.9 43 9.5 NW 26 35 14 19 1005.4 1005.3 0.0
29/02:00pm 36.7 35.2 16.8 30 12.8 NW 20 30 11 16 1005.6 1005.5 0.0
29/01:30pm 36.4 34.4 16.5 30 12.7 NW 22 32 12 17 1006.1 1006.0 0.0
29/01:00pm 36.9 35.1 17.0 31 12.8 NW 22 32 12 17 1006.5 1006.4 0.0
29/12:30pm 37.3 35.6 15.7 27 13.7 NW 19 28 10 15 1006.8 1006.7 0.0
29/12:00pm 37.5 36.0 15.3 26 14.0 NW 17 24 9 13 1007.4 1007.3 0.0
29/11:30am 35.3 35.0 19.6 39 10.4 NW 20 28 11 15 1007.9 1007.8 0.0
29/11:00am 37.2 37.1 18.7 33 12.2 WNW 17 26 9 14 1008.2 1008.1 0.0
29/10:30am 37.8 36.8 16.7 28 13.6 NW 17 26 9 14 1008.5 1008.4 0.0
29/10:00am 37.8 38.3 18.3 32 12.8 NW 13 24 7 13 1008.7 1008.6 0.0
29/09:30am 37.6 36.8 12.9 23 15.1 NNE 9 15 5 8 1008.9 1008.8 0.0
29/09:00am 36.6 35.5 10.7 21 15.3 SSW 7 11 4 6 1009.1 1009.0 0.0
29/08:30am 34.9 33.8 13.1 27 13.2 SW 11 17 6 9 1009.3 1009.2 0.0
29/08:00am 33.2 32.1 15.2 33 11.2 SW 15 24 8 13 1009.4 1009.3 0.0
29/07:30am 31.3 32.1 19.0 48 8.0 SW 13 19 7 10 1009.4 1009.3 0.0
29/07:00am 28.3 30.6 22.1 69 4.2 SW 13 17 7 9 1009.5 1009.4 0.0
29/06:30am 25.2 30.1 25.2 100 0.0 SW 9 15 5 8 1009.4 1009.3 0.0
29/06:00am 22.7 26.5 22.7 100 0.0 WSW 7 7 4 4 1009.3 1009.2 0.0
29/05:30am 20.6 22.9 20.6 100 0.0 WSW 9 11 5 6 1009.0 1008.9 0.0
29/05:00am 20.6 23.8 20.6 100 0.0 WNW 4 7 2 4 1008.8 1008.7 0.0
29/04:30am 22.3 26.0 22.3 100 0.0 SW 6 9 3 5 1008.4 1008.3 0.0
29/04:00am 21.5 24.3 21.5 100 0.0 SSW 9 11 5 6 1008.3 1008.2 0.0
29/03:30am 21.5 26.0 21.5 100 0.0 CALM 0 0 0 0 1008.2 1008.1 0.0
29/03:00am 21.7 25.5 21.7 100 0.0 WNW 4 7 2 4 1008.2 1008.1 0.0
29/02:30am 22.5 27.1 22.5 100 0.0 SW 2 6 1 3 1007.8 1007.7 0.0
29/02:00am 23.1 27.6 22.9 99 0.1 S 4 6 2 3 1007.8 1007.7 0.0
29/01:30am 23.0 26.8 22.8 99 0.1 SSW 7 9 4 5 1007.8 1007.7 0.0
29/01:00am 22.8 27.7 22.3 97 0.3 CALM 0 0 0 0 1008.1 1008.0 0.0
29/12:30am 23.3 27.2 22.6 96 0.5 ENE 6 9 3 5 1008.7 1008.6 0.0
29/12:00am 23.7 29.0 23.0 96 0.5 CALM 0 0 0 0 1009.0 1008.9 0.0
 
Date/Time
WST
Temp
°C
App
Temp
°C
Dew
Point
°C
Rel
Hum
%
Delta-T
°C
Wind Press
QNH
hPa
Press
MSL
hPa
Rain since
9am
mm
Dir  Spd
km/h
Gust
km/h
Spd
kts
Gust
kts
28/11:30pm 24.1 29.3 23.6 97 0.3 S 2 7 1 4 1009.0 1008.9 0.0
28/11:00pm 24.2 29.1 23.0 93 0.8 SE 2 7 1 4 1009.1 1009.0 0.0
28/10:30pm 24.4 28.9 23.0 92 0.9 ENE 4 11 2 6 1009.1 1009.0 0.0
28/10:00pm 25.2 29.9 24.0 93 0.8 W 6 11 3 6 1009.0 1008.9 0.0
28/09:30pm 25.8 29.8 23.8 89 1.4 W 9 11 5 6 1008.8 1008.7 0.0
28/09:00pm 26.2 30.7 23.9 87 1.6 WSW 7 9 4 5 1008.2 1008.1 0.0
28/08:30pm 26.6 31.2 24.1 86 1.7 SW 7 9 4 5 1008.1 1008.0 0.0
28/08:00pm 27.2 32.0 24.1 83 2.1 WSW 6 9 3 5 1007.9 1007.8 0.0
28/07:30pm 27.8 32.1 24.2 81 2.5 W 9 13 5 7 1007.5 1007.4 0.0
28/07:00pm 28.1 31.8 23.9 78 2.9 WNW 11 17 6 9 1007.0 1006.9 0.0
28/06:30pm 28.6 31.4 23.7 75 3.4 WNW 15 20 8 11 1006.5 1006.4 0.0
28/06:00pm 29.5 31.7 23.2 69 4.3 NW 17 26 9 14 1006.2 1006.1 0.0
28/05:30pm 30.5 31.5 22.1 61 5.7 NW 20 30 11 16 1005.8 1005.7 0.0
28/05:00pm 31.5 31.5 20.1 50 7.6 NW 20 30 11 16 1005.8 1005.7 0.0
28/04:30pm 31.9 32.0 21.1 52 7.2 NNW 22 32 12 17 1005.5 1005.4 0.0
28/04:00pm 32.6 32.4 20.5 49 8.1 NW 22 35 12 19 1005.6 1005.5 0.0
28/03:30pm 34.3 33.0 19.9 42 9.6 NW 26 33 14 18 1005.7 1005.6 0.0
28/03:00pm 35.6 33.7 16.8 32 12.1 NNW 22 35 12 19 1005.9 1005.8 0.0
28/02:30pm 35.2 33.4 17.0 34 11.7 NW 22 32 12 17 1006.1 1006.0 0.0
28/02:00pm 35.5 34.2 17.2 33 11.8 NNW 20 30 11 16 1006.4 1006.3 0.0
28/01:30pm 34.6 33.7 19.0 39 10.3 NNW 22 30 12 16 1006.8 1006.7 0.0
28/01:00pm 35.1 34.5 20.6 42 9.8 NNW 24 33 13 18 1007.2 1007.1 0.0
28/12:30pm 35.6 35.5 20.7 41 10.0 NNW 22 32 12 17 1007.6 1007.5 0.0
28/12:00pm 34.3 35.8 23.0 51 7.8 NNW 20 32 11 17 1007.9 1007.8 0.0
28/11:30am 34.5 35.4 22.6 50 8.2 N 22 30 12 16 1008.3 1008.2 0.0
28/11:00am 33.9 35.2 22.7 52 7.7 N 20 32 11 17 1008.6 1008.5 0.0
28/10:30am 36.8 36.6 19.7 36 11.4 NNE 20 30 11 16 1008.8 1008.7 0.0
28/10:00am 38.9 34.3 6.6 14 18.1 E 20 30 11 16 1008.9 1008.8 0.0
28/09:30am 37.8 32.9 6.7 15 17.3 E 22 35 12 19 1009.4 1009.3 0.0
28/09:00am 37.2 32.6 6.3 15 17.1 E 20 35 11 19 1009.6 1009.5 0.0
28/08:30am 35.7 30.4 6.9 17 15.9 E 24 37 13 20 1009.6 1009.5 0.0
28/08:00am 34.5 30.1 7.5 19 15.0 E 20 37 11 20 1009.6 1009.5 0.0
28/07:30am 31.3 27.6 9.5 26 12.3 E 19 28 10 15 1009.6 1009.5 0.0
28/07:00am 28.5 27.2 14.7 43 8.4 ESE 15 20 8 11 1009.6 1009.5 0.0
28/06:30am 24.5 27.7 21.6 84 1.9 ESE 7 15 4 8 1009.6 1009.5 0.0
28/06:00am 24.0 28.1 24.0 100 0.0 SE 9 13 5 7 1009.2 1009.1 0.0
28/05:30am 23.9 28.6 23.9 100 0.0 SE 6 7 3 4 1008.8 1008.7 0.0
28/05:00am 23.3 27.4 23.3 100 0.0 SE 7 9 4 5 1008.4 1008.3 0.0
28/04:30am 22.6 26.5 22.6 100 0.0 SE 6 7 3 4 1008.2 1008.1 0.0
28/04:00am 22.4 25.5 22.2 99 0.1 SE 9 11 5 6 1007.9 1007.8 0.0
28/03:30am 22.7 26.5 22.4 98 0.2 E 6 9 3 5 1007.6 1007.5 0.0
28/03:00am 22.6 25.6 21.2 92 0.9 E 7 11 4 6 1007.5 1007.4 0.0
28/02:30am 22.7 25.5 20.8 89 1.2 E 7 9 4 5 1007.5 1007.4 0.0
28/02:00am 22.9 25.5 20.4 86 1.6 ESE 7 9 4 5 1007.3 1007.2 0.0
28/01:30am 22.9 25.5 20.4 86 1.6 E 7 9 4 5 1007.2 1007.1 0.0
28/01:00am 23.2 25.9 20.7 86 1.6 ESE 7 9 4 5 1007.2 1007.1 0.0
28/12:30am 23.2 26.1 20.7 86 1.6 E 6 7 3 4 1007.2 1007.1 0.0
28/12:00am 23.1 25.8 20.2 84 1.9 ENE 6 9 3 5 1007.4 1007.3 0.0
 
Date/Time
WST
Temp
°C
App
Temp
°C
Dew
Point
°C
Rel
Hum
%
Delta-T
°C
Wind Press
QNH
hPa
Press
MSL
hPa
Rain since
9am
mm
Dir  Spd
km/h
Gust
km/h
Spd
kts
Gust
kts
27/11:30pm 22.5 24.7 19.3 82 2.0 N 6 7 3 4 1007.4 1007.3 0.0
27/11:00pm 23.4 26.1 20.3 83 2.0 NE 6 7 3 4 1007.7 1007.6 0.0
27/10:30pm 23.7 27.0 20.0 80 2.4 NE 2 7 1 4 1007.8 1007.7 0.0
27/10:00pm 24.7 27.5 20.8 79 2.6 NNW 7 7 4 4 1007.8 1007.7 0.0
27/09:30pm 25.7 28.4 20.7 74 3.3 W 7 9 4 5 1007.6 1007.5 0.0
27/09:00pm 26.2 29.1 21.0 73 3.4 W 7 9 4 5 1007.2 1007.1 0.0
27/08:30pm 27.6 30.9 21.9 71 3.8 WNW 7 9 4 5 1007.0 1006.9 0.0
27/08:00pm 28.3 31.2 21.8 68 4.4 WNW 9 13 5 7 1006.8 1006.7 0.0
27/07:30pm 28.8 32.0 21.6 65 4.8 WNW 7 9 4 5 1006.4 1006.3 0.0
27/07:00pm 30.3 33.0 21.4 59 6.0 WNW 9 13 5 7 1006.1 1006.0 0.0
27/06:30pm 31.7 33.9 19.7 49 7.9 NNW 7 13 4 7 1005.6 1005.5 0.0
27/06:00pm 33.9 33.5 16.3 35 11.2 NW 13 22 7 12 1005.1 1005.0 0.0
27/05:30pm 37.5 35.1 10.0 19 16.1 WNW 13 17 7 9 1004.6 1004.5 0.0
27/05:00pm 38.4 35.7 9.0 17 17.0 NW 13 20 7 11 1004.3 1004.2 0.0
27/04:30pm 39.4 35.3 8.0 15 18.0 NW 19 24 10 13 1004.3 1004.2 0.0
27/04:00pm 40.8 36.6 5.8 12 19.6 NNW 17 24 9 13 1004.1 1004.0 0.0
27/03:30pm 41.4 38.9 5.0 11 20.1 NE 7 13 4 7 1004.3 1004.2 0.0
27/03:00pm 41.1 38.1 6.0 12 19.7 NNE 11 17 6 9 1004.7 1004.6 0.0
27/02:30pm 43.1 38.4 3.4 9 21.6 ESE 17 28 9 15 1004.8 1004.7 0.0
27/02:00pm 42.3 39.0 4.3 10 20.9 ENE 11 22 6 12 1005.2 1005.1 0.0
27/01:30pm 42.2 37.3 4.3 10 20.8 ENE 19 54 10 29 1005.6 1005.5 0.0
27/01:00pm 42.2 38.1 4.3 10 20.9 E 15 28 8 15 1005.9 1005.8 0.0
27/12:30pm 41.5 36.9 3.7 10 20.5 E 17 32 9 17 1006.4 1006.3 0.0
27/12:00pm 41.0 36.0 4.7 11 20.0 E 20 32 11 17 1007.0 1006.9 0.0
27/11:30am 40.5 35.4 4.3 11 19.7 E 20 37 11 20 1007.3 1007.2 0.0
27/11:00am 39.7 34.5 7.2 14 18.4 E 24 43 13 23 1007.9 1007.8 0.0
27/10:30am 39.1 33.6 7.7 15 17.9 E 26 44 14 24 1008.2 1008.1 0.0
27/10:00am 38.1 33.4 7.9 16 17.2 E 22 43 12 23 1008.6 1008.5 0.0
27/09:30am 37.7 32.0 8.5 17 16.7 E 28 46 15 25 1008.8 1008.7 0.0
27/09:11am 37.0 31.2 7.9 17 16.4 E 28 46 15 25 1008.9 1008.8 0.0
27/09:00am 36.9 32.1 8.7 18 16.1 E 24 41 13 22 1009.1 1009.0 0.0
27/08:30am 35.7 31.0 9.3 20 15.2 E 24 37 13 20 1009.3 1009.2 0.0
27/08:04am 34.2 28.6 8.8 21 14.4 ESE 28 48 15 26 1009.3 1009.2 0.0
27/08:00am 34.0 28.4 8.6 21 14.3 ESE 28 43 15 23 1009.3 1009.2 0.0
27/07:30am 32.1 28.3 9.0 24 13.0 ESE 19 33 10 18 1009.5 1009.4 0.0
27/07:00am 30.0 26.6 9.0 27 11.7 ESE 17 32 9 17 1009.5 1009.4 0.0
27/06:30am 28.6 25.0 8.3 28 11.1 SE 17 32 9 17 1009.3 1009.2 0.0
27/06:00am 27.8 24.1 8.1 29 10.7 SE 17 28 9 15 1009.0 1008.9 0.0
27/05:30am 27.6 23.9 8.0 29 10.6 SE 17 24 9 13 1008.5 1008.4 0.0
27/05:00am 27.6 24.3 8.0 29 10.6 SE 15 24 8 13 1008.1 1008.0 0.0
27/04:30am 27.9 24.0 7.2 27 11.0 SE 17 24 9 13 1007.7 1007.6 0.0
27/04:00am 27.9 24.8 7.2 27 11.1 SE 13 26 7 14 1007.4 1007.3 0.0
27/03:30am 27.9 24.8 7.2 27 11.0 SE 13 19 7 10 1007.2 1007.1 0.0
27/03:00am 28.2 25.4 6.9 26 11.4 SE 11 20 6 11 1007.2 1007.1 0.0
27/02:30am 28.7 25.7 6.1 24 11.9 SE 11 20 6 11 1007.1 1007.0 0.0
27/02:00am 28.8 25.8 6.2 24 11.9 SE 11 20 6 11 1007.1 1007.0 0.0
27/01:30am 29.3 25.9 6.0 23 12.3 SE 13 20 7 11 1007.0 1006.9 0.0
27/01:00am 29.4 25.7 6.1 23 12.3 SSE 15 22 8 12 1007.0 1006.9 0.0
27/12:30am 28.9 25.6 6.3 24 11.9 SSE 13 20 7 11 1007.3 1007.2 0.0
27/12:00am 27.3 23.6 6.1 26 11.1 SSE 15 20 8 11 1007.5 1007.4 0.0
 
Date/Time
WST
Temp
°C
App
Temp
°C
Dew
Point
°C
Rel
Hum
%
Delta-T
°C
Wind Press
QNH
hPa
Press
MSL
hPa
Rain since
9am
mm
Dir  Spd
km/h
Gust
km/h
Spd
kts
Gust
kts
26/11:30pm 25.0 22.5 8.1 34 9.0 S 11 13 6 7 1007.8 1007.7 0.0

Other formats

Comma delimited format used in spreadsheet applications
http://www.bom.gov.au/fwo/IDW60801/IDW60801.94200.axf

JavaScript Object Notation format (JSON) in row-major order
http://www.bom.gov.au/fwo/IDW60801/IDW60801.94200.json

Data quality

Most of these data are generated automatically and are frequently updated. Quality checks on data are not normally performed. It is possible for incorrect values to appear. Refer to information at About Latest Weather Observations and please check the disclaimer before using these data.